Latest Weather Observations for Cooma Airport

IDN60801

Issued at 8:32 pm EST Sunday 19 April 2015 (issued every 30 minutes, with the page automatically refreshed every 10 minutes)

About weather observations | Map of weather stations | Latest weather observations for NSW | Other Formats
Station Details ID: 070217 Name: COOMA AIRPORT AWS Lat: -36.29 Lon: 148.97 Height: 930.0 m
Data from the previous 72 hours. | See also: Recent months for locations in New South Wales
Date/Time
EST
Temp
°C
App
Temp
°C
Dew
Point
Rel
Hum
%
Delta-T
°C
Wind Press
QNH
hPa
Press
MSL
hPa
Rain
since 9 am
mm
Dir
 
Spd
km/h
Gust
km/h
Spd
kts
Gust
kts
19/08:00pm 4.5 -1.5 3.5 93 0.4 SSW 24 35 13 19 1028.3 1027.3 1.6
19/07:30pm 4.8 -0.2 3.6 92 0.5 SSW 19 30 10 16 1027.7 1026.7 1.6
19/07:00pm 4.6 -1.0 3.6 93 0.4 SSW 22 33 12 18 1027.4 1026.4 1.6
19/06:55pm 4.6 -1.4 3.3 91 0.6 S 24 33 13 18 1027.2 1026.2 1.6
19/06:54pm 4.6 -1.0 3.3 91 0.6 S 22 28 12 15 1027.2 1026.2 1.6
19/06:30pm 4.6 -2.2 3.3 91 0.6 S 28 35 15 19 1026.7 1025.7 1.6
19/06:00pm 5.1 -2.3 4.1 93 0.4 S 32 44 17 24 1026.0 1024.9 1.4
19/05:56pm 5.3 -1.8 3.8 90 0.7 SSW 30 44 16 24 1025.7 1024.7 1.4
19/05:54pm 5.4 -1.3 3.7 89 0.8 SSW 28 44 15 24 1025.7 1024.7 1.4
19/05:30pm 5.8 0.9 4.0 88 0.8 SW 19 26 10 14 1025.5 1024.5 1.4
19/05:00pm 6.0 0.9 4.3 89 0.8 SSW 20 28 11 15 1025.1 1024.0 1.4
19/04:30pm 6.5 -0.3 3.1 79 1.5 SSW 28 43 15 23 1024.4 1023.4 1.4
19/04:00pm 7.2 1.2 3.6 78 1.6 SSW 24 30 13 16 1024.0 1022.9 1.4
19/03:30pm 7.2 0.5 3.6 78 1.6 SW 28 35 15 19 1023.4 1022.4 1.4
19/03:00pm 7.0 0.7 4.0 81 1.4 SSW 26 33 14 18 1023.3 1022.3 1.4
19/02:30pm 7.0 0.8 4.5 84 1.2 S 26 35 14 19 1022.9 1021.8 1.4
19/02:00pm 6.4 -0.5 4.4 87 0.9 SSW 30 41 16 22 1022.8 1021.7 1.4
19/01:30pm 7.5 1.1 5.0 84 1.2 SSW 28 39 15 21 1022.7 1021.6 1.4
19/01:00pm 6.7 0.5 4.4 85 1.0 SSW 26 35 14 19 1022.6 1021.5 1.4
19/12:30pm 7.3 1.2 4.8 84 1.2 SSW 26 33 14 18 1022.5 1021.4 1.4
19/12:00pm 7.4 1.6 6.3 93 0.5 SW 26 33 14 18 1022.6 1021.5 1.4
19/11:30am 6.1 -0.9 4.1 87 0.9 SSW 30 39 16 21 1022.8 1021.7 1.2
19/11:00am 5.6 -0.7 3.9 89 0.8 SW 26 33 14 18 1022.7 1021.6 0.8
19/10:30am 4.5 -4.0 3.2 91 0.6 SSW 37 46 20 25 1022.2 1021.1 0.8
19/10:16am 4.6 -3.9 3.4 92 0.5 SSW 37 50 20 27 1022.1 1021.0 0.8
19/10:00am 5.3 -2.6 4.3 93 0.4 SSW 35 46 19 25 1021.7 1020.6 0.6
19/09:38am 5.2 -2.0 5.1 99 0.0 SSW 32 44 17 24 1021.8 1020.7 0.2
19/09:30am 5.1 -2.8 4.1 93 0.4 SSW 35 44 19 24 1021.8 1020.7 0.2
19/09:00am 5.4 -1.8 4.8 96 0.3 SSW 32 43 17 23 1021.1 1020.0 1.8
19/08:30am 5.7 -1.0 5.6 99 0.0 SSW 30 41 16 22 1020.8 1019.7 1.6
19/08:12am 5.7 -1.4 5.6 99 0.0 SSW 32 43 17 23 1020.4 1019.2 1.6
19/08:00am 5.9 -0.8 5.8 99 0.0 SSW 30 37 16 20 1020.0 1018.9 1.6
19/07:30am 5.8 -0.1 5.7 99 0.0 SSW 26 39 14 21 1019.6 1018.5 1.2
19/07:05am 6.6 1.5 6.2 97 0.2 SSW 22 30 12 16 1018.7 1017.6 0.6
19/07:00am 6.8 1.7 6.2 96 0.3 SSW 22 30 12 16 1018.6 1017.5 0.4
19/06:37am 7.5 3.5 6.8 95 0.3 SSW 17 26 9 14 1017.9 1016.7 0.4
19/06:30am 7.4 3.5 5.5 88 0.9 SSW 15 20 8 11 1017.8 1016.6 0.4
19/05:30am 5.5 3.6 2.8 83 1.2 S 2 7 1 4 1016.8 1015.6 0.4
19/05:00am 7.3 5.1 3.4 76 1.8 WNW 4 9 2 5 1016.5 1015.3 0.4
19/04:30am 8.1 5.0 3.4 72 2.1 NW 9 13 5 7 1016.1 1014.9 0.4
19/04:00am 8.3 4.5 3.8 73 2.1 WNW 13 19 7 10 1015.8 1014.6 0.4
19/03:30am 9.0 4.8 4.0 71 2.3 NW 15 26 8 14 1015.8 1014.6 0.4
19/03:00am 8.6 5.5 3.4 70 2.4 WNW 9 15 5 8 1015.7 1014.4 0.4
19/02:30am 9.2 4.6 3.8 69 2.5 WNW 17 24 9 13 1015.6 1014.3 0.4
19/02:00am 10.0 5.7 5.4 73 2.2 WNW 17 20 9 11 1015.7 1014.4 0.4
19/01:30am 10.5 7.0 7.2 80 1.7 W 15 24 8 13 1015.6 1014.3 0.4
19/01:00am 11.2 8.5 9.1 87 1.1 W 13 17 7 9 1015.5 1014.2 0.4
19/12:30am 11.1 9.4 9.7 91 0.7 E 9 11 5 6 1015.5 1014.2 0.4
19/12:00am 11.8 10.0 9.4 85 1.3 W 9 13 5 7 1015.0 1013.8 0.4
 
Date/Time
EST
Temp
°C
App
Temp
°C
Dew
Point
Rel
Hum
%
Delta-T
°C
Wind Press
QNH
hPa
Press
MSL
hPa
Rain
since 9 am
mm
Dir
 
Spd
km/h
Gust
km/h
Spd
kts
Gust
kts
18/11:30pm 11.6 9.9 9.7 88 1.0 W 9 11 5 6 1015.1 1013.9 0.4
18/11:00pm 12.5 10.3 9.5 82 1.6 NW 11 15 6 8 1014.7 1013.4 0.4
18/10:30pm 12.9 10.1 9.9 82 1.6 NW 15 19 8 10 1014.8 1013.5 0.4
18/10:00pm 12.1 10.6 10.7 91 0.8 NNW 9 13 5 7 1014.9 1013.7 0.4
18/09:30pm 12.0 11.2 11.1 94 0.5 NNE 6 9 3 5 1014.7 1013.4 0.4
18/09:00pm 12.6 11.6 11.0 90 0.9 N 7 11 4 6 1014.6 1013.3 0.4
18/08:30pm 13.4 13.4 11.1 86 1.3 NW 2 9 1 5 1015.0 1013.8 0.2
18/08:00pm 13.4 12.4 10.9 85 1.4 W 7 9 4 5 1014.5 1013.2 0.2
18/07:30pm 14.1 12.8 11.3 83 1.6 WNW 9 13 5 7 1014.2 1013.0 0.2
18/07:00pm 14.8 13.3 11.8 82 1.7 NW 11 17 6 9 1014.4 1013.1 0.2
18/06:30pm 15.4 13.3 11.2 76 2.4 NNW 13 17 7 9 1013.9 1012.7 0.2
18/06:00pm 16.0 13.0 10.7 71 3.0 NNW 17 22 9 12 1013.6 1012.3 0.2
18/05:30pm 16.2 13.2 10.5 69 3.2 NNW 17 24 9 13 1013.4 1012.1 0.2
18/05:00pm 17.1 13.4 10.0 63 3.9 NNW 20 39 11 21 1013.2 1011.9 0.2
18/04:30pm 17.4 13.4 10.5 64 3.9 NW 22 35 12 19 1013.4 1012.1 0.2
18/04:00pm 17.5 13.2 10.9 65 3.7 NW 24 39 13 21 1013.6 1012.3 0.2
18/03:31pm 17.4 12.4 10.8 65 3.7 NW 28 46 15 25 1013.5 1012.2 0.2
18/03:30pm 17.4 12.0 10.8 65 3.7 NW 30 46 16 25 1013.5 1012.2 0.2
18/03:00pm 18.1 12.1 10.7 62 4.2 NNW 33 54 18 29 1013.7 1012.4 0.2
18/02:36pm 19.2 13.6 11.5 61 4.4 NW 32 50 17 27 1013.5 1012.2 0.2
18/02:30pm 19.0 12.2 10.8 59 4.6 NW 37 52 20 28 1013.6 1012.3 0.2
18/02:10pm 19.2 13.4 10.7 58 4.8 NNW 32 52 17 28 1013.9 1012.7 0.2
18/02:00pm 19.0 14.1 11.3 61 4.4 NW 28 39 15 21 1013.7 1012.4 0.2
18/01:30pm 19.6 14.0 12.1 62 4.4 NNW 33 44 18 24 1014.4 1013.1 0.2
18/01:00pm 19.4 14.6 11.7 61 4.4 NNW 28 43 15 23 1013.9 1012.7 0.2
18/12:30pm 18.5 15.3 12.0 66 3.8 NW 20 30 11 16 1014.8 1013.5 0.2
18/12:03pm 18.2 13.0 11.5 65 3.8 NW 30 54 16 29 1015.6 1014.3 0.2
18/12:00pm 18.7 14.0 12.0 65 3.9 NW 28 44 15 24 1015.7 1014.4 0.2
18/11:45am 18.6 13.6 12.1 66 3.8 NW 30 48 16 26 1015.9 1014.7 0.2
18/11:30am 18.6 14.8 12.4 67 3.6 NNW 24 43 13 23 1016.0 1014.8 0.2
18/11:00am 17.6 14.6 12.7 73 2.9 NNW 20 33 11 18 1016.5 1015.3 0.2
18/10:30am 17.0 13.6 12.5 75 2.6 NNW 22 32 12 17 1017.0 1015.8 0.2
18/10:00am 16.8 13.5 12.7 77 2.4 NW 22 35 12 19 1017.1 1015.9 0.0
18/09:30am 17.6 11.4 11.4 67 3.5 NW 35 59 19 32 1017.0 1015.8 0.0
18/09:07am 17.8 12.9 11.4 66 3.6 NNW 28 48 15 26 1017.0 1015.8 0.0
18/09:00am 17.7 13.3 11.7 68 3.4 NNW 26 41 14 22 1017.0 1015.8 -
18/08:30am 17.0 12.9 11.5 70 3.1 NNW 24 37 13 20 1017.2 1016.0 -
18/08:00am 16.9 11.9 11.0 68 3.3 NNW 28 39 15 21 1017.1 1015.9 -
18/07:43am 16.9 12.0 11.4 70 3.1 NNW 28 46 15 25 1017.1 1015.9 -
18/07:30am 16.9 12.8 11.4 70 3.1 NNW 24 41 13 22 1017.0 1015.8 -
18/07:00am 17.0 12.9 11.5 70 3.1 NNW 24 44 13 24 1016.5 1015.3 -
18/06:30am 17.0 12.5 11.5 70 3.1 NNW 26 39 14 21 1016.4 1015.2 -
18/06:01am 17.1 12.3 11.8 71 3.0 NNW 28 46 15 25 1016.7 1015.4 -
18/06:00am 17.1 12.7 11.8 71 3.0 NNW 26 43 14 23 1016.5 1015.3 -
18/05:30am 16.3 14.3 12.8 80 2.0 N 15 22 8 12 1016.4 1015.2 -
18/05:00am 13.5 12.7 13.0 97 0.3 N 9 13 5 7 1016.4 1015.2 -
18/04:30am 12.9 11.2 12.3 96 0.3 NNE 13 19 7 10 1016.2 1015.0 -
18/04:00am 12.4 10.6 12.2 99 0.1 NNE 13 19 7 10 1016.0 1014.8 -
18/03:30am 11.6 9.2 11.4 99 0.1 NNE 15 19 8 10 1016.0 1014.8 -
18/03:00am 11.5 9.4 11.3 99 0.1 NE 13 15 7 8 1016.3 1015.1 0.0
18/02:30am 12.3 10.1 12.1 99 0.1 NNE 15 17 8 9 1016.9 1015.7 -
18/02:00am 12.3 10.5 12.1 99 0.1 NNE 13 17 7 9 1017.6 1016.4 -
18/01:30am 12.2 10.4 12.0 99 0.1 NNE 13 15 7 8 1018.2 1017.0 -
18/01:00am 12.4 10.7 12.4 100 0.0 NNE 13 15 7 8 1018.4 1017.2 -
18/12:30am 12.4 10.7 12.4 100 0.0 NE 13 17 7 9 1018.8 1017.7 -
18/12:00am 12.4 10.7 12.4 100 0.0 NE 13 15 7 8 1019.1 1017.9 -
 
Date/Time
EST
Temp
°C
App
Temp
°C
Dew
Point
Rel
Hum
%
Delta-T
°C
Wind Press
QNH
hPa
Press
MSL
hPa
Rain
since 9 am
mm
Dir
 
Spd
km/h
Gust
km/h
Spd
kts
Gust
kts
17/11:30pm 12.6 10.5 12.4 99 0.1 NE 15 19 8 10 1019.4 1018.2 -
17/11:00pm 13.4 11.4 12.8 96 0.3 NNE 15 20 8 11 1019.6 1018.5 -
17/10:30pm 13.4 11.5 13.1 98 0.2 NNE 15 19 8 10 1019.9 1018.8 -
17/10:00pm 13.0 11.8 12.8 99 0.1 NNE 11 15 6 8 1020.3 1019.1 -
17/09:30pm 13.0 11.0 12.8 99 0.1 NNE 15 19 8 10 1020.3 1019.1 -
17/09:00pm 13.2 10.9 13.0 99 0.1 NNE 17 22 9 12 1020.3 1019.1 0.4
17/08:30pm 13.2 10.3 13.0 99 0.1 NNE 20 26 11 14 1020.3 1019.1 -
17/08:00pm 13.4 10.2 13.2 99 0.1 NNE 22 26 12 14 1020.7 1019.6 -
17/07:30pm 13.6 10.5 13.4 99 0.1 NNE 22 26 12 14 1020.8 1019.7 -
17/07:00pm 13.7 11.0 13.5 99 0.1 NNE 20 26 11 14 1020.7 1019.6 -
17/06:30pm 13.3 11.1 13.3 100 0.0 NE 17 20 9 11 1020.8 1019.7 -
17/06:00pm 13.5 11.0 13.5 100 0.0 NE 19 22 10 12 1020.6 1019.5 -
17/05:30pm 13.7 12.4 13.7 100 0.0 NNE 13 19 7 10 1020.5 1019.4 -
17/05:00pm 14.1 12.1 13.9 99 0.1 NNE 17 22 9 12 1020.5 1019.4 -
17/04:30pm 14.2 11.9 14.0 99 0.1 NNE 19 24 10 13 1020.5 1019.4 -
17/04:01pm 14.1 10.8 13.9 99 0.1 NNE 24 30 13 16 1020.6 1019.5 -
17/04:00pm 14.2 10.9 14.0 99 0.1 NNE 24 30 13 16 1020.6 1019.5 -
17/03:30pm 14.0 10.6 13.8 99 0.1 NNE 24 30 13 16 1020.7 1019.6 -
17/03:00pm 13.8 10.4 13.8 100 0.0 NE 24 32 13 17 1020.9 1019.8 -
17/02:30pm 13.5 10.4 13.5 100 0.0 NE 22 28 12 15 1021.5 1020.4 -
17/02:00pm 13.4 9.5 13.4 100 0.0 NNE 26 32 14 17 1021.7 1020.6 -
17/01:30pm 13.1 9.1 13.1 100 0.0 NNE 26 32 14 17 1021.9 1020.8 -
17/01:00pm 12.9 9.3 12.9 100 0.0 NE 24 32 13 17 1022.2 1021.1 -
17/12:36pm 12.9 9.6 12.7 99 0.1 NE 22 28 12 15 1022.9 1021.8 -
17/12:30pm 13.0 10.1 12.8 99 0.1 NE 20 24 11 13 1023.1 1022.0 -
17/11:23am 12.9 9.6 12.7 99 0.1 NNE 22 30 12 16 1024.8 1023.7 1.2
17/11:00am 13.0 9.3 12.8 99 0.1 NNE 24 30 13 16 1025.0 1023.9 1.0
17/10:32am 12.9 10.1 12.7 99 0.1 NNE 19 24 10 13 1025.3 1024.3 0.8
17/10:30am 13.0 10.3 12.8 99 0.1 NNE 19 24 10 13 1025.3 1024.3 0.8
17/10:00am 12.7 9.9 12.5 99 0.1 NNE 19 24 10 13 1025.4 1024.4 0.4
17/09:30am 12.7 10.3 12.5 99 0.1 NNE 17 19 9 10 1025.5 1024.5 0.2
17/09:07am 12.6 10.6 12.6 100 0.0 NE 15 17 8 9 1025.7 1024.7 0.0
17/09:00am 12.4 10.7 12.4 100 0.0 NNE 13 17 7 9 1025.8 1024.8 1.4
17/08:50am 12.4 11.1 12.4 100 0.0 NNE 11 15 6 8 1025.8 1024.8 1.2
17/08:43am 12.3 10.6 12.3 100 0.0 NNE 13 17 7 9 1025.8 1024.8 1.2
17/08:30am 12.3 10.6 12.3 100 0.0 NNE 13 17 7 9 1025.8 1024.8 0.8
17/08:12am 12.2 10.8 12.2 100 0.0 NE 11 13 6 7 1025.8 1024.8 0.6
17/08:00am 12.2 11.2 12.2 100 0.0 NE 9 11 5 6 1025.6 1024.6 0.6
17/07:53am 12.1 10.7 12.1 100 0.0 NE 11 15 6 8 1025.7 1024.7 0.6
17/07:30am 12.0 10.2 12.0 100 0.0 NE 13 15 7 8 1025.5 1024.5 0.4
17/07:00am 11.6 9.6 11.6 100 0.0 NE 13 15 7 8 1025.2 1024.2 0.4
17/06:30am 11.7 10.1 11.7 100 0.0 NNE 11 15 6 8 1025.1 1024.0 0.0
17/06:15am 11.9 9.6 11.9 100 0.0 NE 15 17 8 9 1024.9 1023.8 0.0
17/06:00am 11.8 9.5 11.6 99 0.1 NE 15 17 8 9 1024.6 1023.6 0.0
17/05:30am 11.7 9.7 11.5 99 0.1 NNE 13 15 7 8 1024.3 1023.3 0.0
17/05:00am 11.7 10.5 11.5 99 0.1 NE 9 11 5 6 1024.2 1023.1 0.0
17/04:56am 11.7 10.5 11.5 99 0.1 NE 9 11 5 6 1024.2 1023.1 0.0
17/04:30am 11.6 10.3 11.4 99 0.1 NNE 9 11 5 6 1024.2 1023.1 0.0
17/04:00am 11.7 12.2 11.5 99 0.1 CALM 0 0 0 0 1024.2 1023.1 0.0
17/03:30am 11.7 12.2 11.5 99 0.1 CALM 0 0 0 0 1024.3 1023.3 0.0
17/03:24am 11.7 12.2 11.5 99 0.1 CALM 0 0 0 0 1024.3 1023.3 0.0
17/03:02am 11.6 12.0 11.4 99 0.1 CALM 0 0 0 0 1024.4 1023.4 0.0
17/03:00am 11.6 12.0 11.4 99 0.1 CALM 0 0 0 0 1024.4 1023.4 0.0
17/02:30am 11.6 12.0 11.4 99 0.1 CALM 0 0 0 0 1024.6 1023.6 0.0
17/02:25am 11.5 11.5 11.3 99 0.1 WNW 2 7 1 4 1024.8 1023.7 0.0
17/02:18am 11.5 10.8 11.3 99 0.1 WNW 6 7 3 4 1024.8 1023.7 0.0
17/02:00am 11.4 11.0 11.2 99 0.1 W 4 7 2 4 1025.0 1023.9 0.0
17/01:32am 11.5 10.8 11.3 99 0.1 WSW 6 11 3 6 1025.4 1024.4 0.0
17/01:30am 11.5 10.8 11.3 99 0.1 WNW 6 11 3 6 1025.4 1024.4 0.0
17/01:00am 11.8 11.9 11.6 99 0.1 NNW 2 9 1 5 1025.5 1024.5 0.0
17/12:39am 11.6 10.0 11.4 99 0.1 SSW 11 17 6 9 1025.7 1024.7 0.0
17/12:30am 11.7 10.5 11.5 99 0.1 SW 9 15 5 8 1026.1 1025.0 0.0
17/12:18am 11.8 11.5 11.5 98 0.2 WSW 4 7 2 4 1026.1 1025.0 0.0
17/12:00am 12.0 10.8 11.5 97 0.3 SW 9 11 5 6 1026.3 1025.3 0.0
 
Date/Time
EST
Temp
°C
App
Temp
°C
Dew
Point
Rel
Hum
%
Delta-T
°C
Wind Press
QNH
hPa
Press
MSL
hPa
Rain
since 9 am
mm
Dir
 
Spd
km/h
Gust
km/h
Spd
kts
Gust
kts
16/11:43pm 12.2 11.1 11.9 98 0.2 SW 9 13 5 7 1026.5 1025.5 0.0
16/11:30pm 12.2 11.1 11.9 98 0.2 SW 9 13 5 7 1026.4 1025.4 0.0
16/11:23pm 12.1 10.6 11.8 98 0.2 SW 11 13 6 7 1026.5 1025.5 0.0
16/11:00pm 11.9 10.6 11.4 97 0.3 SW 9 11 5 6 1026.4 1025.4 0.0
16/10:52pm 12.1 10.9 11.6 97 0.3 SW 9 11 5 6 1026.4 1025.4 0.0
16/10:30pm 12.3 11.1 11.7 96 0.3 SW 9 13 5 7 1026.2 1025.2 0.0
16/10:00pm 12.5 10.9 11.7 95 0.4 SW 11 13 6 7 1026.0 1024.9 0.0
16/09:30pm 12.4 10.9 11.9 97 0.3 WSW 11 13 6 7 1026.0 1024.9 0.0
16/09:18pm 12.4 11.0 12.1 98 0.2 WSW 11 15 6 8 1025.8 1024.8 0.0
16/09:07pm 12.4 11.0 12.1 98 0.2 SW 11 13 6 7 1025.8 1024.8 0.0
16/09:00pm 12.3 11.2 12.0 98 0.2 SW 9 11 5 6 1025.8 1024.8 0.0
16/08:40pm 12.0 10.5 11.8 99 0.1 SW 11 13 6 7 1025.7 1024.7 0.0
16/08:38pm 11.9 10.3 11.7 99 0.1 SW 11 13 6 7 1025.7 1024.7 0.0

Other Formats:

Comma delimited format used in spreadsheet applications
http://www.bom.gov.au/fwo/IDN60801/IDN60801.94921.axf

JavaScript Object Notation format (JSON) in row-major order
http://www.bom.gov.au/fwo/IDN60801/IDN60801.94921.json